createdAt,value
2019-04-05T00:00:19.906Z,6.40
2019-04-05T00:02:49.169Z,6.40
2019-04-05T00:05:18.805Z,6.40
2019-04-05T00:07:48.819Z,6.30
2019-04-05T00:10:18.190Z,6.30
2019-04-05T00:12:47.793Z,6.30
2019-04-05T00:15:17.067Z,6.30
2019-04-05T00:17:46.800Z,6.30
2019-04-05T00:20:16.532Z,6.20
2019-04-05T00:22:45.952Z,6.30
2019-04-05T00:25:15.248Z,6.30
2019-04-05T00:27:44.931Z,6.30
2019-04-05T00:30:14.576Z,6.30
2019-04-05T00:32:44.151Z,6.30
2019-04-05T00:35:13.883Z,6.30
2019-04-05T00:37:43.177Z,6.40
2019-04-05T00:40:13.118Z,6.30
2019-04-05T00:42:42.888Z,6.30
2019-04-05T00:45:12.720Z,6.40
2019-04-05T00:47:42.746Z,6.30
2019-04-05T00:50:12.509Z,6.30
2019-04-05T00:52:41.823Z,6.30
2019-04-05T00:55:11.456Z,6.30
2019-04-05T00:57:40.739Z,6.30
2019-04-05T01:00:11.895Z,6.30
2019-04-05T01:02:41.171Z,6.40
2019-04-05T01:05:10.691Z,6.30
2019-04-05T01:07:40.031Z,6.40
2019-04-05T01:10:10.264Z,6.40
2019-04-05T01:12:40.718Z,6.40
2019-04-05T01:15:12.225Z,6.40
2019-04-05T01:17:41.546Z,6.40
2019-04-05T01:20:13.544Z,6.40
2019-04-05T01:22:44.939Z,6.40
2019-04-05T01:25:15.075Z,6.40
2019-04-05T01:27:44.567Z,6.40
2019-04-05T01:30:15.123Z,6.40
2019-04-05T01:32:44.609Z,6.40
2019-04-05T01:35:14.560Z,6.40
2019-04-05T01:37:44.732Z,6.40
2019-04-05T01:40:15.012Z,6.40
2019-04-05T01:42:44.369Z,6.50
2019-04-05T01:45:14.154Z,6.50
2019-04-05T01:47:43.719Z,6.40
2019-04-05T01:50:13.474Z,6.40
2019-04-05T01:52:43.579Z,6.40
2019-04-05T01:55:13.186Z,6.30
2019-04-05T01:57:42.996Z,6.30
2019-04-05T02:00:12.854Z,6.30
2019-04-05T02:02:42.820Z,6.20
2019-04-05T02:05:12.442Z,6.20
2019-04-05T02:07:42.434Z,6.20
2019-04-05T02:10:12.719Z,6.20
2019-04-05T02:12:42.071Z,6.20
2019-04-05T02:15:12.907Z,6.20
2019-04-05T02:17:42.167Z,6.20
2019-04-05T02:20:12.219Z,6.20
2019-04-05T02:22:41.488Z,6.20
2019-04-05T02:25:11.231Z,6.20
2019-04-05T02:27:40.842Z,6.30
2019-04-05T02:30:10.206Z,6.30
2019-04-05T02:32:48.344Z,6.30
2019-04-05T02:35:17.655Z,6.30
2019-04-05T02:37:46.965Z,6.30
2019-04-05T02:40:17.061Z,6.30
2019-04-05T02:42:48.527Z,6.30
2019-04-05T02:45:19.103Z,6.30
2019-04-05T02:47:52.511Z,6.30
2019-04-05T02:50:24.258Z,6.30
2019-04-05T02:52:57.112Z,6.30
2019-04-05T02:55:27.571Z,6.30
2019-04-05T02:57:59.038Z,6.40
2019-04-05T03:00:29.830Z,6.30
2019-04-05T03:03:00.221Z,6.40
2019-04-05T03:05:29.849Z,6.40
2019-04-05T03:07:59.241Z,6.40
2019-04-05T03:11:03.717Z,6.40
2019-04-05T03:13:38.742Z,6.40
2019-04-05T03:16:15.757Z,6.40
2019-04-05T03:18:50.421Z,6.40
2019-04-05T03:21:22.156Z,6.40
2019-04-05T03:23:53.311Z,6.40
2019-04-05T03:26:25.535Z,6.30
2019-04-05T03:28:58.008Z,6.40
2019-04-05T03:31:27.880Z,6.30
2019-04-05T03:33:57.664Z,6.20
2019-04-05T03:36:27.742Z,6.10
2019-04-05T03:38:57.418Z,6.10
2019-04-05T03:41:27.078Z,6.00
2019-04-05T03:43:56.580Z,5.90
2019-04-05T03:46:26.078Z,5.90
2019-04-05T03:48:56.051Z,5.80
2019-04-05T03:51:25.629Z,5.80
2019-04-05T03:53:55.703Z,5.70
2019-04-05T03:56:25.089Z,5.70
2019-04-05T03:58:54.775Z,5.70
2019-04-05T04:01:24.064Z,5.70
2019-04-05T04:03:53.462Z,5.70
2019-04-05T04:06:22.856Z,5.70
2019-04-05T04:08:52.296Z,5.70
2019-04-05T04:11:22.051Z,5.80
2019-04-05T04:13:51.531Z,5.80
2019-04-05T04:16:21.972Z,5.80
2019-04-05T04:18:51.384Z,5.80
2019-04-05T04:21:34.393Z,5.90
2019-04-05T04:24:04.069Z,5.90
2019-04-05T04:26:33.972Z,6.00
2019-04-05T04:29:03.755Z,6.00
2019-04-05T04:31:33.036Z,6.10
2019-04-05T04:34:02.786Z,6.10
2019-04-05T04:36:32.431Z,6.10
2019-04-05T04:39:01.791Z,6.10
2019-04-05T04:41:32.145Z,6.10
2019-04-05T04:44:01.624Z,6.20
2019-04-05T04:46:31.191Z,6.20
2019-04-05T04:49:00.871Z,6.20
2019-04-05T04:51:30.663Z,6.20
2019-04-05T04:54:00.667Z,6.20
2019-04-05T04:56:30.663Z,6.20
2019-04-05T04:59:00.047Z,6.20
2019-04-05T05:01:29.535Z,6.20
2019-04-05T05:04:01.990Z,6.10
2019-04-05T05:06:31.781Z,6.10
2019-04-05T05:09:01.428Z,6.10
2019-04-05T05:11:30.711Z,6.10
2019-04-05T05:14:00.383Z,6.10
2019-04-05T05:16:29.783Z,6.20
2019-04-05T05:18:59.149Z,6.20
2019-04-05T05:21:29.967Z,6.20
2019-04-05T05:23:59.530Z,6.20
2019-04-05T05:26:28.958Z,6.20
2019-04-05T05:28:58.535Z,6.20
2019-04-05T05:31:28.808Z,6.20
2019-04-05T05:33:58.246Z,6.20
2019-04-05T05:36:30.478Z,6.20
2019-04-05T05:39:00.663Z,6.30
2019-04-05T05:41:29.943Z,6.30
2019-04-05T05:43:59.277Z,6.40
2019-04-05T05:46:28.572Z,6.40
2019-04-05T05:48:57.939Z,6.50
2019-04-05T05:51:27.283Z,6.50
2019-04-05T05:53:56.642Z,6.60
2019-04-05T05:56:25.926Z,6.60
2019-04-05T05:58:59.374Z,6.60
2019-04-05T06:01:27.203Z,6.70
2019-04-05T06:03:56.928Z,6.80
2019-04-05T06:06:26.312Z,6.90
2019-04-05T06:08:55.583Z,6.90
2019-04-05T06:11:24.861Z,6.90
2019-04-05T06:13:54.552Z,7.00
2019-04-05T06:16:24.152Z,7.00
2019-04-05T06:18:53.696Z,7.10
2019-04-05T06:21:23.291Z,7.20
2019-04-05T06:23:52.632Z,7.20
2019-04-05T06:26:21.930Z,7.30
2019-04-05T06:28:51.296Z,7.30
2019-04-05T06:31:21.071Z,7.40
2019-04-05T06:33:50.334Z,7.40
2019-04-05T06:36:19.726Z,7.30
2019-04-05T06:38:49.155Z,7.30
2019-04-05T06:41:18.443Z,7.30
2019-04-05T06:43:47.969Z,7.40
2019-04-05T06:46:17.245Z,7.30
2019-04-05T06:48:46.621Z,7.30
2019-04-05T06:51:15.914Z,7.20
2019-04-05T06:53:45.511Z,7.20
2019-04-05T06:56:14.839Z,7.00
2019-04-05T06:58:46.312Z,7.00
2019-04-05T07:01:15.177Z,7.00
2019-04-05T07:03:44.815Z,7.00
2019-04-05T07:06:14.174Z,7.00
2019-04-05T07:08:53.534Z,6.90
2019-04-05T07:11:18.549Z,7.00
2019-04-05T07:13:48.208Z,7.20
2019-04-05T07:16:17.463Z,7.30
2019-04-05T07:18:46.756Z,7.40
2019-04-05T07:21:17.410Z,7.50
2019-04-05T07:23:47.220Z,7.70
2019-04-05T07:26:16.679Z,7.80
2019-04-05T07:28:46.457Z,8.00
2019-04-05T07:31:15.819Z,8.10
2019-04-05T07:33:45.473Z,8.30
2019-04-05T07:36:14.841Z,8.60
2019-04-05T07:38:44.159Z,8.70
2019-04-05T07:43:40.183Z,8.70
2019-04-05T07:46:09.494Z,8.70
2019-04-05T07:48:44.800Z,8.70
2019-04-05T07:51:09.828Z,8.90
2019-04-05T07:53:39.474Z,8.80
2019-04-05T07:56:08.857Z,8.80
2019-04-05T07:58:38.143Z,8.90
2019-04-05T08:01:07.802Z,8.90
2019-04-05T08:03:37.463Z,8.90
2019-04-05T08:06:06.752Z,9.00
2019-04-05T08:09:02.287Z,9.00
2019-04-05T08:11:31.439Z,9.00
2019-04-05T08:14:02.115Z,8.90
2019-04-05T08:16:31.825Z,8.90
2019-04-05T08:19:01.444Z,9.10
2019-04-05T08:21:30.759Z,9.20
2019-04-05T08:24:00.323Z,9.30
2019-04-05T08:26:29.639Z,9.60
2019-04-05T08:28:58.954Z,9.90
2019-04-05T08:31:28.348Z,9.90
2019-04-05T08:33:57.728Z,9.90
2019-04-05T08:36:27.050Z,10.00
2019-04-05T08:38:56.327Z,10.00
2019-04-05T08:41:25.936Z,10.00
2019-04-05T08:43:55.241Z,10.10
2019-04-05T08:46:24.555Z,10.10
2019-04-05T08:48:54.164Z,10.10
2019-04-05T08:51:24.194Z,10.10
2019-04-05T08:53:53.573Z,10.20
2019-04-05T08:56:23.292Z,10.10
2019-04-05T08:58:52.873Z,10.10
2019-04-05T09:01:22.129Z,10.10
2019-04-05T09:03:51.437Z,10.10
2019-04-05T09:06:20.867Z,10.20
2019-04-05T09:08:50.171Z,10.20
2019-04-05T09:11:19.558Z,10.20
2019-04-05T09:13:49.305Z,10.50
2019-04-05T09:16:18.908Z,10.60
2019-04-05T09:18:49.597Z,10.70
2019-04-05T09:21:18.994Z,10.90
2019-04-05T09:23:48.390Z,10.90
2019-04-05T09:26:17.652Z,10.90
2019-04-05T09:28:46.957Z,10.90
2019-04-05T09:31:16.576Z,10.80
2019-04-05T09:33:45.880Z,10.80
2019-04-05T09:36:15.480Z,10.70
2019-04-05T09:38:44.826Z,10.80
2019-04-05T09:41:14.066Z,10.80
2019-04-05T09:43:43.395Z,10.90
2019-04-05T09:46:12.767Z,11.00
2019-04-05T09:48:42.363Z,10.80
2019-04-05T09:51:11.637Z,11.00
2019-04-05T09:53:40.936Z,11.20
2019-04-05T09:56:10.850Z,11.50
2019-04-05T09:58:40.384Z,11.60
2019-04-05T10:01:10.000Z,11.90
2019-04-05T10:03:39.523Z,12.00
2019-04-05T10:06:08.859Z,12.10
2019-04-05T10:08:38.815Z,12.10
2019-04-05T10:11:08.411Z,12.00
2019-04-05T10:13:37.960Z,11.80
2019-04-05T10:16:07.229Z,12.00
2019-04-05T10:18:36.953Z,12.10
2019-04-05T10:21:06.326Z,12.10
2019-04-05T10:23:35.879Z,12.00
2019-04-05T10:26:05.605Z,11.90
2019-04-05T10:28:35.009Z,12.00
2019-04-05T10:31:04.556Z,12.00
2019-04-05T10:33:33.921Z,11.80
2019-04-05T10:36:03.238Z,11.70
2019-04-05T10:38:32.539Z,11.50
2019-04-05T10:41:02.135Z,11.60
2019-04-05T10:43:31.660Z,11.80
2019-04-05T10:46:00.945Z,12.00
2019-04-05T10:48:30.593Z,12.30
2019-04-05T10:50:59.892Z,12.40
2019-04-05T10:53:29.474Z,12.50
2019-04-05T10:55:59.051Z,12.30
2019-04-05T10:58:28.452Z,12.20
2019-04-05T11:00:57.865Z,12.30
2019-04-05T11:03:27.614Z,12.30
2019-04-05T11:05:56.859Z,12.30
2019-04-05T11:08:26.151Z,12.20
2019-04-05T11:10:55.410Z,12.00
2019-04-05T11:13:24.824Z,12.10
2019-04-05T11:15:54.092Z,12.10
2019-04-05T11:18:23.416Z,12.10
2019-04-05T11:20:53.020Z,12.10
2019-04-05T11:23:23.095Z,12.20
2019-04-05T11:25:52.507Z,12.20
2019-04-05T11:28:22.235Z,12.30
2019-04-05T11:30:51.528Z,12.20
2019-04-05T11:33:20.804Z,12.20
2019-04-05T11:35:50.084Z,12.10
2019-04-05T11:38:20.473Z,12.00
2019-04-05T11:40:49.754Z,12.00
2019-04-05T11:43:21.141Z,12.00
2019-04-05T11:45:51.472Z,11.80
2019-04-05T11:48:21.246Z,11.90
2019-04-05T11:50:50.556Z,11.80
2019-04-05T11:53:22.037Z,11.90
2019-04-05T11:55:51.620Z,12.10
2019-04-05T11:58:20.911Z,12.10
2019-04-05T12:00:54.084Z,12.10
2019-04-05T12:03:23.917Z,12.20
2019-04-05T12:05:53.203Z,12.10
2019-04-05T12:08:22.499Z,12.20
2019-04-05T12:10:51.800Z,12.20
2019-04-05T12:13:21.315Z,12.10
2019-04-05T12:15:50.934Z,12.10
2019-04-05T12:18:20.215Z,12.10
2019-04-05T12:20:59.654Z,12.00
2019-04-05T12:23:20.799Z,12.00
2019-04-05T12:25:50.091Z,12.10
2019-04-05T12:28:19.398Z,12.00
2019-04-05T12:30:49.810Z,12.00
2019-04-05T12:33:20.310Z,11.90
2019-04-05T12:35:52.987Z,11.90
2019-04-05T12:38:34.066Z,11.80
2019-04-05T12:41:04.692Z,11.70
2019-04-05T12:43:34.000Z,11.70
2019-04-05T12:46:04.372Z,11.70
2019-04-05T12:48:33.724Z,11.60
2019-04-05T12:51:05.463Z,11.50
2019-04-05T12:53:34.006Z,11.60
2019-04-05T12:56:03.872Z,11.60
2019-04-05T12:58:33.262Z,11.60
2019-04-05T13:01:02.526Z,11.60
2019-04-05T13:03:33.007Z,11.60
2019-04-05T13:06:02.576Z,11.60
2019-04-05T13:08:31.865Z,11.50
2019-04-05T13:11:01.190Z,11.30
2019-04-05T13:13:30.875Z,11.30
2019-04-05T13:16:00.168Z,11.20
2019-04-05T13:18:31.579Z,11.10
2019-04-05T13:21:01.154Z,10.90
2019-04-05T13:23:33.776Z,10.60
2019-04-05T13:26:03.184Z,10.50
2019-04-05T13:28:32.465Z,10.50
2019-04-05T13:31:01.825Z,10.40
2019-04-05T13:33:31.487Z,10.50
2019-04-05T13:36:01.392Z,10.50
2019-04-05T13:38:30.670Z,10.60
2019-04-05T13:41:01.662Z,10.60
2019-04-05T13:43:32.616Z,10.70
2019-04-05T13:46:02.454Z,10.70
2019-04-05T13:48:31.752Z,10.80
2019-04-05T13:51:01.407Z,10.90
2019-04-05T13:53:30.957Z,11.00
2019-04-05T13:56:00.229Z,11.10
2019-04-05T13:58:29.620Z,11.10
2019-04-05T14:00:58.925Z,11.00
2019-04-05T14:03:28.215Z,11.10
2019-04-05T14:05:57.526Z,11.20
2019-04-05T14:08:26.846Z,11.20
2019-04-05T14:10:56.127Z,11.00
2019-04-05T14:13:25.624Z,10.80
2019-04-05T14:15:55.432Z,10.80
2019-04-05T14:18:25.003Z,10.80
2019-04-05T14:20:54.283Z,10.80
2019-04-05T14:23:24.115Z,10.80
2019-04-05T14:25:53.502Z,10.90
2019-04-05T14:28:22.759Z,11.10
2019-04-05T14:30:52.196Z,11.10
2019-04-05T14:33:24.393Z,11.10
2019-04-05T14:35:54.794Z,11.10
2019-04-05T14:38:23.904Z,11.10
2019-04-05T14:40:53.516Z,11.00
2019-04-05T14:43:22.819Z,11.00
2019-04-05T14:45:52.352Z,11.10
2019-04-05T14:48:22.050Z,11.20
2019-04-05T14:50:51.420Z,11.20
2019-04-05T14:53:21.376Z,11.30
2019-04-05T14:55:50.927Z,11.30
2019-04-05T14:58:20.218Z,11.30
2019-04-05T15:00:49.905Z,11.30
2019-04-05T15:03:19.513Z,11.30
2019-04-05T15:05:48.857Z,11.20
2019-04-05T15:08:20.666Z,11.20
2019-04-05T15:10:51.373Z,11.00
2019-04-05T15:13:21.167Z,11.00
2019-04-05T15:15:50.755Z,11.00
2019-04-05T15:18:24.217Z,11.10
2019-04-05T15:20:51.153Z,10.90
2019-04-05T15:23:22.184Z,10.80
2019-04-05T15:25:51.451Z,10.70
2019-04-05T15:28:22.494Z,10.70
2019-04-05T15:30:55.666Z,10.60
2019-04-05T15:33:25.521Z,10.70
2019-04-05T15:35:58.349Z,10.70
2019-04-05T15:38:25.970Z,10.70
2019-04-05T15:40:55.246Z,10.70
2019-04-05T15:43:24.897Z,10.70
2019-04-05T15:45:54.781Z,10.70
2019-04-05T15:48:24.584Z,10.70
2019-04-05T15:50:57.790Z,10.60
2019-04-05T15:53:24.909Z,10.50
2019-04-05T15:55:54.159Z,10.40
2019-04-05T15:58:23.925Z,10.50
2019-04-05T16:00:53.570Z,10.50
2019-04-05T16:03:23.192Z,10.50
2019-04-05T16:05:52.919Z,10.50
2019-04-05T16:08:22.276Z,10.40
2019-04-05T16:10:51.653Z,10.30
2019-04-05T16:13:21.193Z,10.20
2019-04-05T16:15:50.764Z,10.20
2019-04-05T16:18:20.088Z,10.30
2019-04-05T16:20:49.379Z,10.30
2019-04-05T16:23:18.648Z,10.30
2019-04-05T16:25:48.212Z,10.40
2019-04-05T16:28:17.874Z,10.50
2019-04-05T16:30:47.158Z,10.60
2019-04-05T16:33:16.716Z,10.60
2019-04-05T16:35:46.034Z,10.60
2019-04-05T16:38:15.736Z,10.50
2019-04-05T16:40:45.464Z,10.50
2019-04-05T16:43:14.744Z,10.50
2019-04-05T16:45:44.256Z,10.50
2019-04-05T16:48:13.552Z,10.50
2019-04-05T16:50:43.151Z,10.50
2019-04-05T16:53:12.424Z,10.50
2019-04-05T16:55:41.834Z,10.40
2019-04-05T16:58:11.123Z,10.40
2019-04-05T17:00:40.411Z,10.50
2019-04-05T17:03:09.695Z,10.50
2019-04-05T17:05:39.091Z,10.60
2019-04-05T17:08:08.367Z,10.60
2019-04-05T17:10:38.417Z,10.60
2019-04-05T17:13:07.688Z,10.50
2019-04-05T17:15:37.331Z,10.50
2019-04-05T17:18:07.112Z,10.50
2019-04-05T17:20:36.432Z,10.50
2019-04-05T17:23:05.767Z,10.40
2019-04-05T17:25:35.295Z,10.40
2019-04-05T17:28:05.143Z,10.40
2019-04-05T17:30:36.258Z,10.40
2019-04-05T17:33:05.737Z,10.30
2019-04-05T17:35:35.017Z,10.20
2019-04-05T17:38:04.294Z,10.20
2019-04-05T17:40:33.601Z,10.20
2019-04-05T17:43:03.152Z,10.30
2019-04-05T17:45:32.414Z,10.20
2019-04-05T17:48:01.716Z,10.20
2019-04-05T17:50:33.535Z,10.20
2019-04-05T17:53:12.278Z,10.20
2019-04-05T17:55:34.715Z,10.20
2019-04-05T17:58:06.810Z,10.10
2019-04-05T18:00:36.395Z,10.00
2019-04-05T18:03:05.669Z,10.00
2019-04-05T18:05:37.925Z,10.00
2019-04-05T18:08:07.620Z,9.90
2019-04-05T18:10:37.652Z,10.00
2019-04-05T18:13:07.373Z,10.00
2019-04-05T18:15:36.943Z,9.90
2019-04-05T18:18:06.261Z,9.90
2019-04-05T18:20:35.805Z,9.90
2019-04-05T18:23:05.458Z,9.90
2019-04-05T18:25:34.744Z,9.90
2019-04-05T18:28:04.028Z,9.90
2019-04-05T18:30:33.739Z,9.90
2019-04-05T18:33:03.274Z,9.90
2019-04-05T18:35:32.553Z,9.90
2019-04-05T18:38:01.824Z,9.90
2019-04-05T18:40:39.934Z,9.80
2019-04-05T18:43:02.404Z,9.70
2019-04-05T18:45:33.551Z,9.70
2019-04-05T18:48:03.813Z,9.70
2019-04-05T18:50:33.255Z,9.80
2019-04-05T18:53:02.552Z,9.70
2019-04-05T18:55:31.845Z,9.70
2019-04-05T18:58:01.192Z,9.70
2019-04-05T19:00:30.494Z,9.70
2019-04-05T19:03:00.099Z,9.70
2019-04-05T19:05:29.463Z,9.70
2019-04-05T19:07:59.120Z,9.70
2019-04-05T19:10:36.859Z,9.70
2019-04-05T19:13:00.144Z,9.70
2019-04-05T19:15:29.723Z,9.70
2019-04-05T19:17:59.071Z,9.70
2019-04-05T19:20:28.707Z,9.70
2019-04-05T19:22:58.303Z,9.70
2019-04-05T19:25:27.942Z,9.70
2019-04-05T19:27:57.212Z,9.70
2019-04-05T19:50:35.412Z,9.60
2019-04-05T19:53:04.804Z,9.60
2019-04-05T19:55:34.070Z,9.50
2019-04-05T19:58:03.411Z,9.50
2019-04-05T20:00:33.145Z,9.50
2019-04-05T20:03:02.479Z,9.50
2019-04-05T20:05:32.069Z,9.40
2019-04-05T20:08:01.679Z,9.40
2019-04-05T20:10:30.947Z,9.40
2019-04-05T20:13:00.303Z,9.50
2019-04-05T20:15:29.574Z,9.50
2019-04-05T20:17:59.079Z,9.50
2019-04-05T20:20:28.397Z,9.50
2019-04-05T20:22:57.998Z,9.60
2019-04-05T20:25:27.543Z,9.50
2019-04-05T20:27:56.807Z,9.50
2019-04-05T20:30:26.067Z,9.50
2019-04-05T20:32:55.669Z,9.40
2019-04-05T20:35:24.927Z,9.40
2019-04-05T20:37:54.482Z,9.50
2019-04-05T20:40:24.107Z,9.40
2019-04-05T20:42:53.462Z,9.50
2019-04-05T20:45:22.999Z,9.50
2019-04-05T20:47:52.278Z,9.50
2019-04-05T20:50:21.543Z,9.60
2019-04-05T20:52:51.226Z,9.60
2019-04-05T20:55:20.495Z,9.60
2019-04-05T20:57:49.920Z,9.70
2019-04-05T21:00:19.430Z,9.60
2019-04-05T21:02:49.147Z,9.70
2019-04-05T21:05:25.322Z,9.70
2019-04-05T21:07:49.523Z,9.70
2019-04-05T21:10:19.072Z,9.70
2019-04-05T21:12:48.703Z,9.70
2019-04-05T21:15:18.325Z,9.70
2019-04-05T21:17:48.130Z,9.70
2019-04-05T21:20:17.731Z,9.70
2019-04-05T21:22:47.080Z,9.80
2019-04-05T21:25:17.819Z,9.70
2019-04-05T21:27:47.137Z,9.70
2019-04-05T21:30:16.635Z,9.80
2019-04-05T21:32:45.929Z,9.80
2019-04-05T21:35:15.572Z,9.70
2019-04-05T21:37:44.869Z,9.80
2019-04-05T21:40:14.258Z,9.80
2019-04-05T21:42:43.878Z,9.70
2019-04-05T21:45:13.717Z,9.70
2019-04-05T21:47:43.824Z,9.70
2019-04-05T21:50:13.540Z,9.70
2019-04-05T21:52:42.842Z,9.70
2019-04-05T21:55:13.279Z,9.70
2019-04-05T21:57:42.864Z,9.70
2019-04-05T22:00:23.148Z,9.70
2019-04-05T22:02:52.527Z,9.80
2019-04-05T22:05:21.821Z,9.80
2019-04-05T22:07:51.641Z,9.80
2019-04-05T22:10:21.110Z,9.80
2019-04-05T22:12:50.664Z,9.80
2019-04-05T22:15:20.192Z,9.80
2019-04-05T22:17:49.772Z,9.70
2019-04-05T22:20:19.439Z,9.70
2019-04-05T22:22:49.055Z,9.70
2019-04-05T22:25:18.314Z,9.70
2019-04-05T22:27:48.197Z,9.80
2019-04-05T22:30:17.805Z,9.70
2019-04-05T22:32:47.467Z,9.80
2019-04-05T22:35:16.732Z,9.80
2019-04-05T22:37:49.104Z,9.80
2019-04-05T22:40:18.695Z,9.80
2019-04-05T22:42:48.182Z,9.70
2019-04-05T22:45:17.702Z,9.70
2019-04-05T22:47:47.297Z,9.70
2019-04-05T22:50:16.591Z,9.60
2019-04-05T22:52:45.997Z,9.60
2019-04-05T22:55:15.255Z,9.60
2019-04-05T22:57:44.880Z,9.60
2019-04-05T23:00:14.372Z,9.60
2019-04-05T23:02:43.750Z,9.60
2019-04-05T23:05:13.015Z,9.60
2019-04-05T23:07:42.303Z,9.70
2019-04-05T23:10:12.002Z,9.70
2019-04-05T23:12:41.631Z,9.70
2019-04-05T23:15:12.400Z,9.70
2019-04-05T23:17:41.863Z,9.70
2019-04-05T23:20:11.489Z,9.70
2019-04-05T23:22:40.771Z,9.70
2019-04-05T23:25:22.828Z,9.80
2019-04-05T23:27:52.359Z,9.80
2019-04-05T23:30:23.426Z,9.80
2019-04-05T23:32:53.243Z,9.80
2019-04-05T23:35:22.577Z,9.80
2019-04-05T23:37:51.994Z,9.80
2019-04-05T23:40:21.438Z,9.80
2019-04-05T23:43:01.364Z,9.80
2019-04-05T23:45:31.109Z,9.80
2019-04-05T23:48:00.626Z,9.80
2019-04-05T23:50:30.296Z,9.80
2019-04-05T23:53:00.018Z,9.80
2019-04-05T23:55:33.814Z,9.90
2019-04-05T23:58:03.250Z,9.90
